createdAt,value
2023-06-30T00:00:14.620Z,95.71
2023-06-30T00:02:42.481Z,97.91
2023-06-30T00:05:10.352Z,99.26
2023-06-30T00:07:38.309Z,100.00
2023-06-30T00:10:07.221Z,99.25
2023-06-30T00:12:34.351Z,100.00
2023-06-30T00:15:01.620Z,100.00
2023-06-30T00:17:28.206Z,100.00
2023-06-30T00:19:58.965Z,100.00
2023-06-30T00:22:26.583Z,100.00
2023-06-30T00:24:56.963Z,100.00
2023-06-30T00:27:24.597Z,100.00
2023-06-30T00:29:52.003Z,100.00
2023-06-30T00:32:18.666Z,100.00
2023-06-30T00:34:45.189Z,100.00
2023-06-30T00:37:11.908Z,100.00
2023-06-30T00:39:38.452Z,100.00
2023-06-30T00:42:05.150Z,100.00
2023-06-30T00:44:31.782Z,100.00
2023-06-30T00:47:01.937Z,100.00
2023-06-30T00:49:32.521Z,100.00
2023-06-30T00:52:00.320Z,100.00
2023-06-30T00:54:27.114Z,100.00
2023-06-30T00:56:53.685Z,100.00
2023-06-30T00:59:20.347Z,100.00
2023-06-30T01:02:02.314Z,100.00
2023-06-30T01:04:44.226Z,100.00
2023-06-30T01:07:27.510Z,100.00
2023-06-30T01:10:08.009Z,100.00
2023-06-30T01:12:35.521Z,100.00
2023-06-30T01:15:03.107Z,100.00
2023-06-30T01:17:30.934Z,100.00
2023-06-30T01:19:59.829Z,100.00
2023-06-30T01:22:35.944Z,100.00
2023-06-30T01:25:06.872Z,100.00
2023-06-30T01:27:33.654Z,100.00
2023-06-30T01:30:00.834Z,100.00
2023-06-30T01:32:27.535Z,100.00
2023-06-30T01:34:54.307Z,100.00
2023-06-30T01:37:20.887Z,100.00
2023-06-30T01:39:47.400Z,100.00
2023-06-30T01:42:14.721Z,100.00
2023-06-30T01:44:42.963Z,100.00
2023-06-30T01:47:10.979Z,100.00
2023-06-30T01:49:37.807Z,100.00
2023-06-30T01:52:04.790Z,100.00
2023-06-30T01:54:31.372Z,100.00
2023-06-30T01:56:59.115Z,100.00
2023-06-30T01:59:25.672Z,100.00
2023-06-30T02:01:52.528Z,100.00
2023-06-30T02:04:19.147Z,100.00
2023-06-30T02:06:45.722Z,100.00
2023-06-30T02:09:15.100Z,100.00
2023-06-30T02:11:41.900Z,100.00
2023-06-30T02:14:08.579Z,100.00
2023-06-30T02:16:35.131Z,100.00
2023-06-30T02:19:01.664Z,100.00
2023-06-30T02:21:28.198Z,100.00
2023-06-30T02:23:54.768Z,100.00
2023-06-30T02:26:21.360Z,100.00
2023-06-30T02:28:47.883Z,100.00
2023-06-30T02:31:14.444Z,100.00
2023-06-30T02:33:41.000Z,100.00
2023-06-30T02:36:07.547Z,100.00
2023-06-30T02:38:34.138Z,100.00
2023-06-30T02:41:01.074Z,100.00
2023-06-30T02:43:27.624Z,100.00
2023-06-30T02:45:54.201Z,100.00
2023-06-30T02:48:20.807Z,100.00
2023-06-30T02:50:47.351Z,100.00
2023-06-30T02:53:13.914Z,100.00
2023-06-30T02:55:40.541Z,100.00
2023-06-30T02:58:07.261Z,100.00
2023-06-30T03:00:35.343Z,100.00
2023-06-30T03:03:02.134Z,100.00
2023-06-30T03:05:30.078Z,100.00
2023-06-30T03:07:56.752Z,100.00
2023-06-30T03:10:23.294Z,100.00
2023-06-30T03:12:49.844Z,100.00
2023-06-30T03:15:16.368Z,100.00
2023-06-30T03:17:42.990Z,100.00
2023-06-30T03:20:13.615Z,100.00
2023-06-30T03:22:43.510Z,100.00
2023-06-30T03:25:10.501Z,100.00
2023-06-30T03:27:37.107Z,100.00
2023-06-30T03:30:05.308Z,100.00
2023-06-30T03:32:32.775Z,100.00
2023-06-30T03:35:01.145Z,100.00
2023-06-30T03:37:27.680Z,100.00
2023-06-30T03:39:54.214Z,100.00
2023-06-30T03:42:20.754Z,100.00
2023-06-30T03:44:47.447Z,100.00
2023-06-30T03:47:14.121Z,100.00
2023-06-30T03:49:40.633Z,100.00
2023-06-30T03:52:07.811Z,100.00
2023-06-30T03:54:34.435Z,100.00
2023-06-30T03:57:01.226Z,100.00
2023-06-30T03:59:27.741Z,100.00
2023-06-30T04:01:55.086Z,100.00
2023-06-30T04:04:22.123Z,100.00
2023-06-30T04:06:48.805Z,100.00
2023-06-30T04:09:16.133Z,100.00
2023-06-30T04:11:43.150Z,100.00
2023-06-30T04:14:09.769Z,100.00
2023-06-30T04:16:36.639Z,100.00
2023-06-30T04:19:03.293Z,100.00
2023-06-30T04:21:29.874Z,100.00
2023-06-30T04:23:56.464Z,100.00
2023-06-30T04:26:23.039Z,100.00
2023-06-30T04:28:49.625Z,100.00
2023-06-30T04:31:16.212Z,100.00
2023-06-30T04:33:42.766Z,100.00
2023-06-30T04:36:09.688Z,100.00
2023-06-30T04:38:36.429Z,100.00
2023-06-30T04:41:03.087Z,100.00
2023-06-30T04:43:29.652Z,100.00
2023-06-30T04:45:56.346Z,100.00
2023-06-30T04:48:22.898Z,100.00
2023-06-30T04:50:49.448Z,100.00
2023-06-30T04:53:16.076Z,99.11
2023-06-30T04:55:42.827Z,98.74
2023-06-30T04:58:09.535Z,100.00
2023-06-30T05:00:36.056Z,99.68
2023-06-30T05:03:03.857Z,98.35
2023-06-30T05:05:30.571Z,99.48
2023-06-30T05:07:57.103Z,97.82
2023-06-30T05:10:23.668Z,95.37
2023-06-30T05:12:50.217Z,93.39
2023-06-30T05:15:16.854Z,95.24
2023-06-30T05:17:43.473Z,94.22
2023-06-30T05:20:10.654Z,93.59
2023-06-30T05:22:37.242Z,92.23
2023-06-30T05:25:04.065Z,91.63
2023-06-30T05:27:31.410Z,92.19
2023-06-30T05:29:58.191Z,91.82
2023-06-30T05:32:24.860Z,92.31
2023-06-30T05:34:51.678Z,90.74
2023-06-30T05:37:18.328Z,90.73
2023-06-30T05:39:44.850Z,92.34
2023-06-30T05:42:11.419Z,90.72
2023-06-30T05:44:38.034Z,90.95
2023-06-30T05:47:05.099Z,87.79
2023-06-30T05:49:31.750Z,84.58
2023-06-30T05:51:58.905Z,83.63
2023-06-30T05:54:25.600Z,80.82
2023-06-30T05:56:52.170Z,78.42
2023-06-30T05:59:18.739Z,78.62
2023-06-30T06:01:45.286Z,74.64
2023-06-30T06:04:12.727Z,77.56
2023-06-30T06:06:39.513Z,77.98
2023-06-30T06:09:07.075Z,78.00
2023-06-30T06:11:33.615Z,76.11
2023-06-30T06:14:00.146Z,74.57
2023-06-30T06:16:27.246Z,73.31
2023-06-30T06:18:53.860Z,70.55
2023-06-30T06:21:21.548Z,66.99
2023-06-30T06:23:48.106Z,61.52
2023-06-30T06:26:14.715Z,63.34
2023-06-30T06:28:41.300Z,64.52
2023-06-30T06:31:08.123Z,63.11
2023-06-30T06:33:34.740Z,62.34
2023-06-30T06:36:01.328Z,61.62
2023-06-30T06:38:27.922Z,60.93
2023-06-30T06:40:54.423Z,60.00
2023-06-30T06:43:27.099Z,60.67
2023-06-30T06:45:53.842Z,60.27
2023-06-30T06:48:25.451Z,60.77
2023-06-30T06:50:54.263Z,60.81
2023-06-30T06:53:27.030Z,60.26
2023-06-30T06:55:54.835Z,59.81
2023-06-30T06:58:22.164Z,59.18
2023-06-30T07:00:50.369Z,58.57
2023-06-30T07:03:17.834Z,58.14
2023-06-30T07:05:47.754Z,56.91
2023-06-30T07:08:16.458Z,56.66
2023-06-30T07:10:43.499Z,55.27
2023-06-30T07:13:10.168Z,55.41
2023-06-30T07:15:36.858Z,56.60
2023-06-30T07:18:04.002Z,54.61
2023-06-30T07:20:30.749Z,53.41
2023-06-30T07:22:57.832Z,54.02
2023-06-30T07:25:26.354Z,54.31
2023-06-30T07:27:55.711Z,54.32
2023-06-30T07:30:24.318Z,55.18
2023-06-30T07:32:51.203Z,55.39
2023-06-30T07:35:19.014Z,54.19
2023-06-30T07:37:46.476Z,53.87
2023-06-30T07:40:17.179Z,54.64
2023-06-30T07:42:47.272Z,54.59
2023-06-30T07:45:18.678Z,54.17
2023-06-30T07:47:49.971Z,49.78
2023-06-30T07:50:17.018Z,51.44
2023-06-30T07:52:46.588Z,49.01
2023-06-30T07:55:19.723Z,49.33
2023-06-30T07:57:48.501Z,49.57
2023-06-30T08:00:21.781Z,48.61
2023-06-30T08:02:48.798Z,49.61
2023-06-30T08:05:15.948Z,48.25
2023-06-30T08:07:49.791Z,48.70
2023-06-30T08:10:18.066Z,49.51
2023-06-30T08:12:44.704Z,50.17
2023-06-30T08:15:11.448Z,49.52
2023-06-30T08:17:52.150Z,50.04
2023-06-30T08:20:22.702Z,51.10
2023-06-30T08:22:49.471Z,51.57
2023-06-30T08:25:17.153Z,51.36
2023-06-30T08:27:43.966Z,52.30
2023-06-30T08:30:10.875Z,52.95
2023-06-30T08:32:37.614Z,54.69
2023-06-30T08:35:04.442Z,54.81
2023-06-30T08:37:31.040Z,54.72
2023-06-30T08:39:57.653Z,55.79
2023-06-30T08:42:28.857Z,56.44
2023-06-30T08:44:57.721Z,57.87
2023-06-30T08:47:32.694Z,57.91
2023-06-30T08:50:03.047Z,58.07
2023-06-30T08:52:29.803Z,57.69
2023-06-30T08:54:56.953Z,57.93
2023-06-30T08:57:24.267Z,57.24
2023-06-30T08:59:50.943Z,58.03
2023-06-30T09:02:17.986Z,57.93
2023-06-30T09:04:44.997Z,59.95
2023-06-30T09:07:21.599Z,60.71
2023-06-30T09:09:49.018Z,62.51
2023-06-30T09:12:16.344Z,63.42
2023-06-30T09:14:45.850Z,63.18
2023-06-30T09:17:12.987Z,64.03
2023-06-30T09:19:40.118Z,64.32
2023-06-30T09:22:55.260Z,65.33
2023-06-30T09:24:54.363Z,67.43
2023-06-30T09:27:20.998Z,68.64
2023-06-30T09:30:06.130Z,69.50
2023-06-30T09:32:33.639Z,69.58
2023-06-30T09:35:10.092Z,71.13
2023-06-30T09:37:43.782Z,72.40
2023-06-30T09:40:14.022Z,73.67
2023-06-30T09:42:42.270Z,72.85
2023-06-30T09:45:09.071Z,74.71
2023-06-30T09:47:35.775Z,72.70
2023-06-30T09:50:03.255Z,72.99
2023-06-30T09:52:32.135Z,74.24
2023-06-30T09:54:58.664Z,74.00
2023-06-30T09:57:28.731Z,74.01
2023-06-30T09:59:55.403Z,74.34
2023-06-30T10:02:21.994Z,72.51
2023-06-30T10:04:48.542Z,70.46
2023-06-30T10:07:16.270Z,69.87
2023-06-30T10:09:48.046Z,68.53
2023-06-30T10:12:15.795Z,71.50
2023-06-30T10:14:46.146Z,74.26
2023-06-30T10:17:13.412Z,76.23
2023-06-30T10:19:41.284Z,78.69
2023-06-30T10:22:08.055Z,77.16
2023-06-30T10:24:39.074Z,79.03
2023-06-30T10:27:09.997Z,79.19
2023-06-30T10:29:36.956Z,78.86
2023-06-30T10:32:04.477Z,79.11
2023-06-30T10:34:31.928Z,78.02
2023-06-30T10:36:59.705Z,77.13
2023-06-30T10:39:27.485Z,77.83
2023-06-30T10:41:57.156Z,80.35
2023-06-30T10:44:36.478Z,83.92
2023-06-30T10:47:03.437Z,83.00
2023-06-30T10:49:34.713Z,83.74
2023-06-30T10:52:08.045Z,85.16
2023-06-30T10:54:51.027Z,83.63
2023-06-30T10:57:40.361Z,87.54
2023-06-30T11:00:15.737Z,86.43
2023-06-30T11:02:55.041Z,86.61
2023-06-30T11:05:32.363Z,88.03
2023-06-30T11:08:10.367Z,87.84
2023-06-30T11:10:47.115Z,88.95
2023-06-30T11:13:14.574Z,88.71
2023-06-30T11:15:52.537Z,95.12
2023-06-30T11:18:24.774Z,97.29
2023-06-30T11:21:04.798Z,98.75
2023-06-30T11:23:39.096Z,98.39
2023-06-30T11:26:17.642Z,100.00
2023-06-30T11:28:48.921Z,100.00
2023-06-30T11:31:16.521Z,100.00
2023-06-30T11:33:44.809Z,100.00
2023-06-30T11:36:15.807Z,100.00
2023-06-30T11:38:50.040Z,100.00
2023-06-30T11:41:21.228Z,100.00
2023-06-30T11:43:56.658Z,100.00
2023-06-30T11:46:24.194Z,100.00
2023-06-30T11:48:50.825Z,100.00
2023-06-30T11:53:50.624Z,100.00
2023-06-30T11:56:20.804Z,100.00
2023-06-30T11:58:51.589Z,100.00
2023-06-30T12:01:18.335Z,100.00
2023-06-30T12:03:44.970Z,100.00
2023-06-30T12:06:11.556Z,99.56
2023-06-30T12:08:40.022Z,96.80
2023-06-30T12:11:09.715Z,90.99
2023-06-30T12:13:38.837Z,85.83
2023-06-30T12:16:05.933Z,75.34
2023-06-30T12:18:39.846Z,68.29
2023-06-30T12:21:14.264Z,62.83
2023-06-30T12:23:44.930Z,60.78
2023-06-30T12:26:12.612Z,61.55
2023-06-30T12:28:39.432Z,59.06
2023-06-30T12:31:08.100Z,58.00
2023-06-30T12:33:34.648Z,57.64
2023-06-30T12:36:07.269Z,57.37
2023-06-30T12:38:33.811Z,57.93
2023-06-30T12:41:00.627Z,56.56
2023-06-30T12:43:28.371Z,57.69
2023-06-30T12:45:55.115Z,57.08
2023-06-30T12:48:21.701Z,55.97
2023-06-30T12:50:48.526Z,56.91
2023-06-30T12:53:15.351Z,56.72
2023-06-30T12:55:41.905Z,56.78
2023-06-30T12:58:09.120Z,56.04
2023-06-30T13:00:36.236Z,54.90
2023-06-30T13:03:02.823Z,55.13
2023-06-30T13:05:29.435Z,53.61
2023-06-30T13:07:56.922Z,52.40
2023-06-30T13:10:23.855Z,49.52
2023-06-30T13:12:50.954Z,48.59
2023-06-30T13:15:17.560Z,50.74
2023-06-30T13:17:44.787Z,49.49
2023-06-30T13:20:11.483Z,49.87
2023-06-30T13:22:42.866Z,49.71
2023-06-30T13:25:20.003Z,50.69
2023-06-30T13:27:46.669Z,49.42
2023-06-30T13:30:13.406Z,50.71
2023-06-30T13:32:40.665Z,49.88
2023-06-30T13:35:08.326Z,49.73
2023-06-30T13:37:34.919Z,50.38
2023-06-30T13:40:01.492Z,48.28
2023-06-30T13:42:28.800Z,47.50
2023-06-30T13:44:55.748Z,46.43
2023-06-30T13:47:22.434Z,47.75
2023-06-30T13:49:49.006Z,48.01
2023-06-30T13:52:15.626Z,47.79
2023-06-30T13:54:42.264Z,45.45
2023-06-30T13:57:08.976Z,46.72
2023-06-30T13:59:35.556Z,46.37
2023-06-30T14:02:02.073Z,45.64
2023-06-30T14:04:29.237Z,44.22
2023-06-30T14:06:55.879Z,43.96
2023-06-30T14:09:22.552Z,41.29
2023-06-30T14:11:49.078Z,41.89
2023-06-30T14:14:15.799Z,43.38
2023-06-30T14:16:43.209Z,43.87
2023-06-30T14:19:09.754Z,44.18
2023-06-30T14:21:36.375Z,43.07
2023-06-30T14:24:03.273Z,43.90
2023-06-30T14:26:31.121Z,45.05
2023-06-30T14:28:58.043Z,45.02
2023-06-30T14:31:24.688Z,44.66
2023-06-30T14:33:51.208Z,46.85
2023-06-30T14:36:17.897Z,46.18
2023-06-30T14:38:44.654Z,45.75
2023-06-30T14:41:11.204Z,45.64
2023-06-30T14:43:37.795Z,46.09
2023-06-30T14:46:04.422Z,44.42
2023-06-30T14:48:31.057Z,45.47
2023-06-30T14:50:57.751Z,45.76
2023-06-30T14:53:24.409Z,45.90
2023-06-30T14:55:50.996Z,46.41
2023-06-30T14:58:17.576Z,46.90
2023-06-30T15:00:44.083Z,46.77
2023-06-30T15:03:11.090Z,48.11
2023-06-30T15:05:37.667Z,48.87
2023-06-30T15:08:04.620Z,47.35
2023-06-30T15:10:31.177Z,48.28
2023-06-30T15:12:57.707Z,47.72
2023-06-30T15:15:24.265Z,47.35
2023-06-30T15:17:50.913Z,48.71
2023-06-30T15:20:17.657Z,49.87
2023-06-30T15:22:44.227Z,49.61
2023-06-30T15:25:26.010Z,50.15
2023-06-30T15:27:53.545Z,50.08
2023-06-30T15:30:21.088Z,51.21
2023-06-30T15:32:47.873Z,51.46
2023-06-30T15:35:14.768Z,52.24
2023-06-30T15:37:41.756Z,52.61
2023-06-30T15:40:09.238Z,53.58
2023-06-30T15:42:35.843Z,55.47
2023-06-30T15:45:03.673Z,55.10
2023-06-30T15:47:30.285Z,56.11
2023-06-30T15:49:56.847Z,57.14
2023-06-30T15:52:23.460Z,58.11
2023-06-30T15:55:07.994Z,58.50
2023-06-30T15:57:35.031Z,59.32
2023-06-30T16:00:01.738Z,58.95
2023-06-30T16:02:28.472Z,58.92
2023-06-30T16:04:55.134Z,59.38
2023-06-30T16:07:21.807Z,58.10
2023-06-30T16:09:48.333Z,59.30
2023-06-30T16:12:15.217Z,58.80
2023-06-30T16:14:41.773Z,59.19
2023-06-30T16:17:08.311Z,59.86
2023-06-30T16:19:34.850Z,61.75
2023-06-30T16:22:01.387Z,61.47
2023-06-30T16:24:28.428Z,61.88
2023-06-30T16:26:55.049Z,63.87
2023-06-30T16:29:21.620Z,63.95
2023-06-30T16:31:48.180Z,64.24
2023-06-30T16:34:14.815Z,64.94
2023-06-30T16:36:41.354Z,65.91
2023-06-30T16:39:07.888Z,66.52
2023-06-30T16:41:34.427Z,66.32
2023-06-30T16:44:01.040Z,67.04
2023-06-30T16:46:27.724Z,69.10
2023-06-30T16:48:54.275Z,84.19
2023-06-30T16:51:20.810Z,99.86
2023-06-30T16:53:47.367Z,100.00
2023-06-30T16:56:13.925Z,100.00
2023-06-30T16:58:40.463Z,100.00
2023-06-30T17:01:07.063Z,100.00
2023-06-30T17:03:33.680Z,100.00
2023-06-30T17:06:00.371Z,100.00
2023-06-30T17:08:27.851Z,100.00
2023-06-30T17:10:54.850Z,100.00
2023-06-30T17:13:21.635Z,100.00
2023-06-30T17:15:48.478Z,100.00
2023-06-30T17:18:15.168Z,100.00
2023-06-30T17:20:41.717Z,100.00
2023-06-30T17:23:08.446Z,100.00
2023-06-30T17:25:34.969Z,100.00
2023-06-30T17:28:01.461Z,100.00
2023-06-30T17:30:28.057Z,100.00
2023-06-30T17:32:54.707Z,100.00
2023-06-30T17:35:21.430Z,100.00
2023-06-30T17:37:47.990Z,100.00
2023-06-30T17:40:14.568Z,100.00
2023-06-30T17:42:41.253Z,100.00
2023-06-30T17:45:08.068Z,100.00
2023-06-30T17:47:34.719Z,100.00
2023-06-30T17:50:01.313Z,100.00
2023-06-30T17:52:27.915Z,100.00
2023-06-30T17:54:54.532Z,100.00
2023-06-30T17:57:21.056Z,100.00
2023-06-30T17:59:47.575Z,100.00
2023-06-30T18:02:14.295Z,100.00
2023-06-30T18:04:40.997Z,100.00
2023-06-30T18:07:10.874Z,100.00
2023-06-30T18:09:39.042Z,100.00
2023-06-30T18:12:06.405Z,100.00
2023-06-30T18:14:33.467Z,100.00
2023-06-30T18:17:01.263Z,100.00
2023-06-30T18:19:28.456Z,100.00
2023-06-30T18:21:56.054Z,100.00
2023-06-30T18:24:23.270Z,100.00
2023-06-30T18:26:50.602Z,100.00
2023-06-30T18:29:20.704Z,100.00
2023-06-30T18:31:47.429Z,100.00
2023-06-30T18:34:14.201Z,100.00
2023-06-30T18:36:40.754Z,100.00
2023-06-30T18:39:07.285Z,100.00
2023-06-30T18:41:33.898Z,100.00
2023-06-30T18:44:00.449Z,100.00
2023-06-30T18:46:30.610Z,100.00
2023-06-30T18:49:02.303Z,100.00
2023-06-30T18:51:30.692Z,100.00
2023-06-30T18:53:57.365Z,100.00
2023-06-30T18:56:24.433Z,100.00
2023-06-30T18:58:55.443Z,100.00
2023-06-30T19:01:22.215Z,100.00
2023-06-30T19:03:51.022Z,100.00
2023-06-30T19:06:20.658Z,100.00
2023-06-30T19:08:47.542Z,100.00
2023-06-30T19:11:14.162Z,100.00
2023-06-30T19:13:40.741Z,100.00
2023-06-30T19:16:07.385Z,100.00
2023-06-30T19:18:35.709Z,100.00
2023-06-30T19:21:03.574Z,100.00
2023-06-30T19:23:30.335Z,100.00
2023-06-30T19:25:56.880Z,100.00
2023-06-30T19:28:23.471Z,100.00
2023-06-30T19:30:51.752Z,100.00
2023-06-30T19:33:21.024Z,100.00
2023-06-30T19:35:47.770Z,100.00
2023-06-30T19:38:14.479Z,100.00
2023-06-30T19:40:41.055Z,100.00
2023-06-30T19:43:07.542Z,100.00
2023-06-30T19:45:34.085Z,100.00
2023-06-30T19:48:00.732Z,100.00
2023-06-30T19:50:28.973Z,100.00
2023-06-30T19:52:55.629Z,100.00
2023-06-30T19:55:22.303Z,100.00
2023-06-30T19:57:48.922Z,100.00
2023-06-30T20:00:16.068Z,100.00
2023-06-30T20:02:44.021Z,100.00
2023-06-30T20:05:10.689Z,100.00
2023-06-30T20:07:37.450Z,100.00
2023-06-30T20:10:05.276Z,100.00
2023-06-30T20:12:31.832Z,100.00
2023-06-30T20:14:58.440Z,100.00
2023-06-30T20:17:26.751Z,100.00
2023-06-30T20:19:53.628Z,100.00
2023-06-30T20:22:20.241Z,100.00
2023-06-30T20:24:47.797Z,100.00
2023-06-30T20:27:16.243Z,100.00
2023-06-30T20:29:42.958Z,100.00
2023-06-30T20:32:10.548Z,100.00
2023-06-30T20:34:37.071Z,100.00
2023-06-30T20:37:03.960Z,100.00
2023-06-30T20:39:30.545Z,100.00
2023-06-30T20:41:57.093Z,100.00
2023-06-30T20:44:23.691Z,100.00
2023-06-30T20:46:50.324Z,100.00
2023-06-30T20:49:16.906Z,100.00
2023-06-30T20:51:43.435Z,100.00
2023-06-30T20:54:09.981Z,100.00
2023-06-30T20:56:36.549Z,100.00
2023-06-30T20:59:03.199Z,100.00
2023-06-30T21:01:29.761Z,100.00
2023-06-30T21:03:56.468Z,100.00
2023-06-30T21:06:23.140Z,100.00
2023-06-30T21:08:49.745Z,100.00
2023-06-30T21:11:16.364Z,100.00
2023-06-30T21:13:42.972Z,100.00
2023-06-30T21:19:17.644Z,100.00
2023-06-30T21:21:44.328Z,100.00
2023-06-30T21:24:11.106Z,100.00
2023-06-30T21:26:43.140Z,100.00
2023-06-30T21:29:12.288Z,100.00
2023-06-30T21:31:39.302Z,100.00
2023-06-30T21:34:05.995Z,100.00
2023-06-30T21:36:32.670Z,100.00
2023-06-30T21:38:59.313Z,100.00
2023-06-30T21:41:25.885Z,100.00
2023-06-30T21:43:52.453Z,100.00
2023-06-30T21:46:19.059Z,100.00
2023-06-30T21:48:45.695Z,100.00
2023-06-30T21:51:12.282Z,100.00
2023-06-30T21:53:38.988Z,100.00
2023-06-30T21:56:05.765Z,100.00
2023-06-30T21:58:32.393Z,100.00
2023-06-30T22:00:58.994Z,100.00
2023-06-30T22:03:26.116Z,100.00
2023-06-30T22:05:53.337Z,100.00
2023-06-30T22:08:20.151Z,100.00
2023-06-30T22:10:47.156Z,100.00
2023-06-30T22:13:14.165Z,100.00
2023-06-30T22:15:40.671Z,100.00
2023-06-30T22:18:07.493Z,100.00
2023-06-30T22:20:34.121Z,100.00
2023-06-30T22:23:01.268Z,100.00
2023-06-30T22:25:27.929Z,100.00
2023-06-30T22:27:56.709Z,100.00
2023-06-30T22:30:26.175Z,100.00
2023-06-30T22:32:53.367Z,100.00
2023-06-30T22:35:19.975Z,100.00
2023-06-30T22:37:47.555Z,100.00
2023-06-30T22:40:14.726Z,100.00
2023-06-30T22:42:41.334Z,100.00
2023-06-30T22:45:08.264Z,100.00
2023-06-30T22:47:34.899Z,100.00
2023-06-30T22:50:01.952Z,100.00
2023-06-30T22:52:28.606Z,100.00
2023-06-30T22:54:55.270Z,100.00
2023-06-30T22:57:21.842Z,100.00
2023-06-30T22:59:52.230Z,100.00
2023-06-30T23:02:19.595Z,100.00
2023-06-30T23:04:46.466Z,100.00
2023-06-30T23:07:13.235Z,100.00
2023-06-30T23:09:40.638Z,100.00
2023-06-30T23:12:07.554Z,100.00
2023-06-30T23:14:34.267Z,100.00
2023-06-30T23:17:00.884Z,100.00
2023-06-30T23:19:27.585Z,100.00
2023-06-30T23:22:06.356Z,100.00
2023-06-30T23:24:34.418Z,100.00
2023-06-30T23:27:04.650Z,100.00
2023-06-30T23:29:37.099Z,100.00
2023-06-30T23:32:07.703Z,100.00
2023-06-30T23:34:36.194Z,100.00
2023-06-30T23:37:12.401Z,100.00
2023-06-30T23:39:38.996Z,100.00
2023-06-30T23:42:05.751Z,100.00
2023-06-30T23:44:32.327Z,100.00
2023-06-30T23:47:01.962Z,100.00
2023-06-30T23:49:28.572Z,100.00
2023-06-30T23:51:55.160Z,100.00
2023-06-30T23:54:23.538Z,100.00
2023-06-30T23:56:50.927Z,100.00
2023-06-30T23:59:17.481Z,100.00
